Time;durP1;ratioP1;P1;durP2;ratioP2;P2;SDS_P1;SDS_P2;PMS_P1;PMS_P2;Temp;Humidity;BMP_temperature;BMP_pressure;BME280_temperature;BME280_humidity;BME280_pressure;Samples;Min_cycle;Max_cycle;Signal;HPM_P1;HPM_P2
2022/04/14 00:01:19;;;;;;;458.30;66.82;;;;;;;10.72;100.00;163366.47;5020542;28;20059;-57
2022/04/14 00:03:45;;;;;;;163.77;64.82;;;;;;;10.68;100.00;163357.03;5022727;28;20025;-57
2022/04/14 00:06:10;;;;;;;109.50;57.63;;;;;;;10.62;100.00;163340.78;5022961;28;20049;-58
2022/04/14 00:08:36;;;;;;;132.02;58.30;;;;;;;10.54;100.00;163319.19;5025106;28;20029;-57
2022/04/14 00:11:01;;;;;;;132.27;67.82;;;;;;;10.53;100.00;163316.53;5013112;28;20041;-57
2022/04/14 00:13:26;;;;;;;143.82;71.30;;;;;;;10.53;100.00;163316.53;5027426;28;20500;-57
2022/04/14 00:15:52;;;;;;;164.90;77.18;;;;;;;10.53;100.00;163316.53;5029171;28;20381;-57
2022/04/14 00:18:17;;;;;;;148.90;72.93;;;;;;;10.57;100.00;163327.28;5031137;28;20021;-58
2022/04/14 00:20:43;;;;;;;170.70;81.78;;;;;;;10.51;100.00;163311.09;5029439;28;20454;-59
2022/04/14 00:23:08;;;;;;;170.30;76.60;;;;;;;10.46;100.00;163300.28;5030938;28;20017;-59
2022/04/14 00:25:33;;;;;;;183.13;80.75;;;;;;;10.39;100.00;163281.38;5030830;28;20033;-59
2022/04/14 00:27:59;;;;;;;212.05;89.32;;;;;;;10.34;100.00;163267.84;5029709;28;20040;-59
2022/04/14 00:30:24;;;;;;;201.88;89.90;;;;;;;10.32;100.00;163262.44;5030394;28;20369;-60
2022/04/14 00:32:50;;;;;;;237.45;97.68;;;;;;;10.42;100.00;163288.19;5029646;28;20049;-59
2022/04/14 00:35:15;;;;;;;739.83;101.60;;;;;;;10.47;100.00;163303.00;5030560;28;20072;-59
2022/04/14 00:37:41;;;;;;;564.97;93.05;;;;;;;10.46;100.00;163300.28;5028472;28;20052;-59
2022/04/14 00:40:07;;;;;;;411.40;84.40;;;;;;;10.38;100.00;163277.34;5031393;28;20080;-60
2022/04/14 00:42:32;;;;;;;217.27;87.75;;;;;;;10.31;100.00;163259.78;5028914;28;20048;-60
2022/04/14 00:44:59;;;;;;;225.02;91.05;;;;;;;10.29;100.00;163254.38;5030689;28;20025;-60
2022/04/14 00:47:25;;;;;;;225.88;90.85;;;;;;;10.32;100.00;163262.44;5029040;28;20056;-60
2022/04/14 00:49:50;;;;;;;290.58;93.15;;;;;;;10.40;100.00;163282.78;5030934;28;20033;-59
2022/04/14 00:52:16;;;;;;;300.33;83.63;;;;;;;10.38;100.00;163278.72;5028782;28;20491;-59
2022/04/14 00:54:41;;;;;;;300.02;91.70;;;;;;;10.30;100.00;163257.09;5030933;28;20029;-59
2022/04/14 00:57:08;;;;;;;864.35;101.97;;;;;;;10.35;100.00;163270.56;5028927;28;20045;-59
2022/04/14 00:59:34;;;;;;;524.05;81.20;;;;;;;10.33;100.00;163265.16;5033737;28;20038;-59
2022/04/14 01:02:00;;;;;;;324.70;72.43;;;;;;;10.29;100.00;163254.38;5032922;28;20045;-59
2022/04/14 01:04:27;;;;;;;208.88;82.40;;;;;;;10.23;100.00;163239.53;5034628;28;20033;-59
2022/04/14 01:06:52;;;;;;;218.93;90.30;;;;;;;10.15;100.00;163219.28;5032743;28;20069;-59
2022/04/14 01:09:19;;;;;;;473.42;91.95;;;;;;;10.25;100.00;163243.56;5034527;28;20033;-59
2022/04/14 01:11:50;;;;;;;582.03;90.32;;;;;;;10.23;100.00;163238.19;5033132;28;20091;-58
2022/04/14 01:14:38;;;;;;;461.45;81.97;;;;;;;10.14;100.00;163216.59;5033592;28;20542;-59
2022/04/14 01:17:06;;;;;;;443.27;88.65;;;;;;;10.12;100.00;163209.84;5026793;28;20095;-59
2022/04/14 01:19:33;;;;;;;281.13;76.88;;;;;;;10.16;100.00;163221.94;5034288;28;20021;-58
2022/04/14 01:22:07;;;;;;;280.65;80.65;;;;;;;10.13;100.00;163213.88;5032667;28;20041;-58
2022/04/14 01:24:34;;;;;;;287.15;93.07;;;;;;;10.12;100.00;163211.19;5034022;28;20492;-58
2022/04/14 01:27:00;;;;;;;226.60;82.32;;;;;;;10.12;100.00;163211.19;5032767;28;20041;-58
2022/04/14 01:29:27;;;;;;;423.20;90.05;;;;;;;10.00;100.00;163178.81;5033546;28;20096;-59
2022/04/14 01:31:54;;;;;;;589.15;98.82;;;;;;;10.00;100.00;163178.81;5032675;28;20096;-59
2022/04/14 01:34:19;;;;;;;379.55;92.03;;;;;;;9.97;100.00;163172.06;5033641;28;20033;-58
2022/04/14 01:36:44;;;;;;;400.90;118.20;;;;;;;9.98;100.00;163174.72;5032185;28;20037;-58
2022/04/14 01:39:11;;;;;;;474.45;117.45;;;;;;;10.02;100.00;163182.84;5034243;28;20032;-58
2022/04/14 01:41:42;;;;;;;441.17;99.82;;;;;;;10.02;100.00;163184.19;5032342;28;20037;-58
2022/04/14 01:44:08;;;;;;;368.35;98.22;;;;;;;10.00;100.00;162752.47;5033626;28;20029;-58
2022/04/14 01:46:34;;;;;;;454.00;116.78;;;;;;;10.02;100.00;161753.72;5032101;28;20120;-58
2022/04/14 01:49:00;;;;;;;706.70;103.30;;;;;;;10.02;100.00;160427.13;5033608;28;20018;-58
2022/04/14 01:51:27;;;;;;;362.88;101.15;;;;;;;9.99;100.00;159990.38;5031470;28;20045;-58
2022/04/14 01:53:52;;;;;;;588.33;102.53;;;;;;;10.05;100.00;159027.44;5033866;28;20045;-58
2022/04/14 01:56:18;;;;;;;590.30;69.38;;;;;;;10.06;100.00;158810.97;5026564;28;20132;-58
2022/04/14 01:58:44;;;;;;;755.67;86.85;;;;;;;9.94;100.00;160547.88;5021578;28;20468;-58
2022/04/14 02:01:09;;;;;;;933.60;108.00;;;;;;;9.92;100.00;162001.38;5032209;28;20065;-57
2022/04/14 02:03:34;;;;;;;779.35;104.15;;;;;;;9.94;100.00;162889.50;5033465;28;20039;-58
2022/04/14 02:06:00;;;;;;;591.40;73.20;;;;;;;9.76;100.00;163116.75;5031126;28;20076;-57
2022/04/14 02:08:25;;;;;;;486.98;65.22;;;;;;;9.84;100.00;163138.34;5032201;28;20423;-57
2022/04/14 02:10:50;;;;;;;536.60;68.85;;;;;;;9.75;100.00;163114.03;5030698;28;20029;-57
2022/04/14 02:13:16;;;;;;;579.67;71.60;;;;;;;9.73;100.00;163107.31;5032751;28;20040;-57
2022/04/14 02:15:41;;;;;;;605.70;57.10;;;;;;;9.61;100.00;163076.28;5031754;28;20029;-57
2022/04/14 02:18:06;;;;;;;714.78;94.28;;;;;;;9.55;100.00;163060.09;5032970;28;20033;-58
2022/04/14 02:20:32;;;;;;;676.70;70.15;;;;;;;9.55;100.00;163060.09;5033152;28;20355;-58
2022/04/14 02:22:57;;;;;;;373.38;79.55;;;;;;;9.42;100.00;163027.69;5031944;28;20092;-58
2022/04/14 02:25:22;;;;;;;387.25;84.40;;;;;;;9.40;100.00;163022.31;5032569;28;20026;-58
2022/04/14 02:27:48;;;;;;;300.80;87.28;;;;;;;9.37;100.00;163014.22;5030983;28;20046;-59
2022/04/14 02:30:13;;;;;;;641.38;105.55;;;;;;;9.39;100.00;163019.63;5033142;28;20477;-58
2022/04/14 02:32:38;;;;;;;536.15;91.68;;;;;;;9.38;100.00;163016.91;5031035;28;20046;-58
2022/04/14 02:35:04;;;;;;;611.45;115.28;;;;;;;9.31;100.00;162998.03;5032640;28;20029;-59
2022/04/14 02:37:30;;;;;;;366.30;100.07;;;;;;;9.25;100.00;162981.84;5031021;28;20077;-59
2022/04/14 02:39:55;;;;;;;428.27;130.35;;;;;;;9.32;100.00;163000.75;5032710;28;20017;-59
2022/04/14 02:42:20;;;;;;;620.78;118.68;;;;;;;9.38;100.00;163016.91;5030943;28;20092;-58
2022/04/14 02:44:46;;;;;;;767.40;132.43;;;;;;;9.48;100.00;163043.91;5032784;28;20025;-58
2022/04/14 02:47:11;;;;;;;836.15;126.28;;;;;;;9.50;100.00;163049.28;5030680;28;20064;-58
2022/04/14 02:49:36;;;;;;;984.63;117.93;;;;;;;9.45;100.00;163035.81;5031917;28;20469;-58
2022/04/14 02:52:02;;;;;;;828.30;101.75;;;;;;;9.38;100.00;163016.91;5031445;28;20037;-58
2022/04/14 02:54:27;;;;;;;859.70;113.18;;;;;;;9.37;100.00;163014.22;5032568;28;20116;-58
2022/04/14 02:56:53;;;;;;;924.65;115.90;;;;;;;9.41;100.00;163025.03;5030543;28;20045;-58
2022/04/14 02:59:18;;;;;;;802.20;101.72;;;;;;;9.46;100.00;162793.16;5032132;28;20443;-58
2022/04/14 03:01:43;;;;;;;789.63;106.47;;;;;;;9.49;100.00;162240.28;5030260;28;20056;-59
2022/04/14 03:04:09;;;;;;;921.40;124.50;;;;;;;9.49;100.00;161806.09;5032055;28;20029;-58
2022/04/14 03:06:34;;;;;;;815.03;125.18;;;;;;;9.55;100.00;160863.16;5030369;28;20041;-59
2022/04/14 03:08:59;;;;;;;579.15;102.72;;;;;;;9.56;100.00;159995.06;5032013;28;20044;-58
2022/04/14 03:11:25;;;;;;;630.88;102.22;;;;;;;9.59;100.00;158873.41;5030721;28;20037;-58
2022/04/14 03:13:50;;;;;;;685.20;119.50;;;;;;;9.57;100.00;157992.34;5031975;28;20366;-58
2022/04/14 03:16:16;;;;;;;828.75;135.05;;;;;;;9.62;100.00;156734.38;5030509;28;20044;-58
2022/04/14 03:18:41;;;;;;;615.58;123.88;;;;;;;9.71;100.00;154642.06;5032148;28;20021;-58
2022/04/14 03:21:06;;;;;;;665.22;122.85;;;;;;;9.76;100.00;153245.69;5030103;28;20033;-58
2022/04/14 03:23:32;;;;;;;967.80;137.23;;;;;;;9.71;100.00;152528.75;5031586;28;20029;-59
2022/04/14 03:25:57;;;;;;;945.17;125.57;;;;;;;9.70;100.00;152174.13;5018200;28;20021;-58
2022/04/14 03:28:22;;;;;;;997.65;127.18;;;;;;;9.70;100.00;152174.13;5031542;28;20018;-59
2022/04/14 03:30:48;;;;;;;939.75;118.13;;;;;;;9.67;100.00;152518.66;5030042;28;20079;-59
2022/04/14 03:33:13;;;;;;;966.35;123.18;;;;;;;9.66;100.00;152868.25;5032037;28;20013;-59
2022/04/14 03:35:39;;;;;;;931.17;117.80;;;;;;;9.63;100.00;153564.97;5031178;28;20029;-59
2022/04/14 03:38:04;;;;;;;923.85;123.07;;;;;;;9.59;100.00;154611.38;5030362;28;20052;-59
2022/04/14 03:40:29;;;;;;;878.95;128.07;;;;;;;9.55;100.00;155305.66;5031462;28;20017;-59
2022/04/14 03:42:55;;;;;;;480.35;104.38;;;;;;;9.56;100.00;155660.53;5030078;28;20440;-59
2022/04/14 03:45:20;;;;;;;512.30;91.93;;;;;;;9.52;100.00;156005.09;5031062;28;20021;-59
2022/04/14 03:47:46;;;;;;;666.67;123.35;;;;;;;9.53;100.00;156007.69;5030274;28;20416;-59
2022/04/14 03:50:11;;;;;;;1042.55;138.43;;;;;;;9.57;100.00;154958.53;5031216;28;20028;-59
2022/04/14 03:52:37;;;;;;;830.67;116.07;;;;;;;9.51;100.00;155297.97;5029943;28;20064;-59
2022/04/14 03:55:02;;;;;;;1009.50;126.28;;;;;;;9.47;100.00;155287.72;5031212;28;20029;-59
2022/04/14 03:57:28;;;;;;;972.08;119.10;;;;;;;9.46;100.00;155285.13;5028954;28;20041;-59
2022/04/14 03:59:53;;;;;;;951.95;119.88;;;;;;;9.42;100.00;156331.59;5031257;28;20416;-58
2022/04/14 04:02:18;;;;;;;970.28;127.75;;;;;;;9.34;100.00;157739.44;5029389;28;20056;-59
2022/04/14 04:04:44;;;;;;;936.88;115.40;;;;;;;9.32;100.00;159346.16;5031055;28;20032;-59
2022/04/14 04:07:09;;;;;;;1047.57;122.18;;;;;;;9.25;100.00;160598.72;5029699;28;20053;-59
2022/04/14 04:09:35;;;;;;;986.03;123.68;;;;;;;9.23;100.00;161535.44;5030768;28;20048;-59
2022/04/14 04:12:01;;;;;;;858.97;122.60;;;;;;;9.18;100.00;162024.78;5027125;28;20041;-57
2022/04/14 04:14:27;;;;;;;653.42;111.53;;;;;;;9.15;100.00;162034.59;5030438;28;20083;-58
2022/04/14 04:16:52;;;;;;;919.03;131.10;;;;;;;9.20;100.00;161353.78;5029127;28;20049;-57
2022/04/14 04:19:17;;;;;;;865.28;122.55;;;;;;;9.22;100.00;160564.53;5030046;28;20029;-57
2022/04/14 04:21:43;;;;;;;1000.28;127.55;;;;;;;9.23;100.00;159703.88;5029217;28;20060;-58
2022/04/14 04:24:08;;;;;;;923.20;133.13;;;;;;;9.20;100.00;159459.03;5030788;28;20037;-58
2022/04/14 04:26:33;;;;;;;752.63;115.40;;;;;;;9.17;100.00;159299.72;5027825;28;20045;-57
2022/04/14 04:28:59;;;;;;;775.53;114.55;;;;;;;9.16;100.00;158972.22;5030139;28;20032;-58
2022/04/14 04:31:24;;;;;;;991.78;125.65;;;;;;;9.15;100.00;158553.94;5028769;28;20479;-58
2022/04/14 04:33:51;;;;;;;852.78;111.97;;;;;;;9.09;100.00;158885.00;5029369;28;20036;-58
2022/04/14 04:36:22;;;;;;;796.28;113.15;;;;;;;9.08;100.00;158832.84;5029222;28;20041;-58
2022/04/14 04:38:47;;;;;;;910.60;121.85;;;;;;;9.10;100.00;158704.63;5030915;28;20082;-58
2022/04/14 04:41:13;;;;;;;918.88;118.63;;;;;;;9.06;100.00;158736.75;5029225;28;20033;-57
2022/04/14 04:43:38;;;;;;;1009.08;127.00;;;;;;;9.07;100.00;158296.28;5030429;28;20035;-57
2022/04/14 04:46:04;;;;;;;860.30;121.47;;;;;;;9.06;100.00;158299.16;5028441;28;20037;-57
2022/04/14 04:48:29;;;;;;;913.35;122.18;;;;;;;9.06;100.00;157902.88;5029821;28;20030;-58
2022/04/14 04:50:55;;;;;;;868.20;122.15;;;;;;;9.04;100.00;157661.06;5028717;28;20520;-58
2022/04/14 04:53:20;;;;;;;909.40;126.18;;;;;;;9.03;100.00;157439.63;5027970;28;20018;-57
2022/04/14 04:55:45;;;;;;;826.53;125.95;;;;;;;9.04;100.00;157044.78;5028854;28;20026;-57
2022/04/14 04:58:11;;;;;;;817.78;128.57;;;;;;;9.12;100.00;155552.50;5026989;28;20484;-57
2022/04/14 05:00:36;;;;;;;767.10;127.00;;;;;;;9.11;100.00;154845.94;5027887;28;20049;-58
2022/04/14 05:03:07;;;;;;;627.92;125.20;;;;;;;9.11;100.00;153790.13;5020187;28;20038;-57
2022/04/14 05:05:32;;;;;;;711.55;126.55;;;;;;;9.23;100.00;152410.41;5023314;28;20025;-57
2022/04/14 05:07:57;;;;;;;632.92;125.20;;;;;;;9.27;100.00;151365.03;5025741;28;20463;-57
2022/04/14 05:10:23;;;;;;;585.80;125.72;;;;;;;9.28;100.00;150663.97;5018645;28;20030;-57
2022/04/14 05:12:48;;;;;;;602.72;121.40;;;;;;;9.38;100.00;148930.28;5019603;28;20575;-57
2022/04/14 05:15:14;;;;;;;651.00;119.43;;;;;;;9.52;100.00;146503.38;5023544;28;20029;-58
2022/04/14 05:17:39;;;;;;;619.80;118.28;;;;;;;9.61;100.00;144766.44;5018330;28;20049;-57
2022/04/14 05:20:05;;;;;;;705.13;118.72;;;;;;;9.70;100.00;143732.47;5022142;28;20018;-57
2022/04/14 05:22:30;;;;;;;713.30;123.43;;;;;;;9.69;100.00;143027.41;5020187;28;20085;-57
2022/04/14 05:24:55;;;;;;;766.97;121.30;;;;;;;9.72;100.00;142683.13;5024330;28;20032;-57
2022/04/14 05:27:21;;;;;;;686.22;119.68;;;;;;;9.77;100.00;141992.31;5028326;28;20038;-57
2022/04/14 05:29:46;;;;;;;538.53;107.40;;;;;;;9.84;100.00;141306.13;5029236;28;20033;-57
2022/04/14 05:32:11;;;;;;;572.10;113.35;;;;;;;9.92;100.00;140268.66;5026785;28;20037;-57
2022/04/14 05:34:37;;;;;;;590.42;116.97;;;;;;;9.92;100.00;140269.78;5029072;28;20028;-57
2022/04/14 05:37:02;;;;;;;491.70;110.85;;;;;;;9.95;100.00;140275.56;5028172;28;20049;-57
2022/04/14 05:39:27;;;;;;;527.38;114.97;;;;;;;9.97;100.00;139930.13;5028618;28;20022;-57
2022/04/14 05:41:53;;;;;;;398.15;107.18;;;;;;;9.98;100.00;139932.41;5027850;28;20052;-57
2022/04/14 05:44:19;;;;;;;450.35;112.43;;;;;;;9.96;100.00;139926.66;5029885;28;20045;-57
2022/04/14 05:46:44;;;;;;;415.55;116.53;;;;;;;9.97;100.00;139577.78;5030859;28;20520;-57
2022/04/14 05:49:09;;;;;;;398.25;105.85;;;;;;;10.07;100.00;138547.19;5028641;28;20026;-57
2022/04/14 05:51:35;;;;;;;280.38;100.88;;;;;;;10.04;100.00;138189.22;5026340;28;20444;-57
2022/04/14 05:54:00;;;;;;;211.70;95.00;;;;;;;9.99;100.00;137826.81;5027174;28;20040;-57
2022/04/14 05:56:25;;;;;;;237.05;97.60;;;;;;;9.98;100.00;138175.59;5024819;28;20041;-57
2022/04/14 05:58:52;;;;;;;223.38;97.82;;;;;;;9.77;100.00;139534.16;5027218;28;20029;-58
2022/04/14 06:01:18;;;;;;;241.45;93.65;;;;;;;9.72;100.00;140224.78;5028808;28;20056;-58
2022/04/14 06:03:43;;;;;;;382.30;103.95;;;;;;;9.81;100.00;139893.28;5026556;28;21455;-57
2022/04/14 06:06:11;;;;;;;314.38;96.57;;;;;;;9.83;100.00;139547.94;5026837;28;20096;-57
2022/04/14 06:08:37;;;;;;;360.75;95.25;;;;;;;9.84;100.00;139199.16;5019316;28;20028;-57
2022/04/14 06:11:04;;;;;;;278.77;91.25;;;;;;;9.84;100.00;139199.16;5022899;28;20461;-55
2022/04/14 06:13:30;;;;;;;323.33;96.55;;;;;;;9.80;100.00;139892.13;5026355;28;20747;-54
2022/04/14 06:15:55;;;;;;;235.45;88.40;;;;;;;9.74;100.00;141282.84;5026938;28;20116;-54
2022/04/14 06:18:21;;;;;;;431.35;91.70;;;;;;;9.69;100.00;143378.75;5032038;28;20463;-54
2022/04/14 06:20:48;;;;;;;211.93;84.85;;;;;;;9.67;100.00;145131.03;5031740;28;20033;-54
2022/04/14 06:23:16;;;;;;;204.10;85.85;;;;;;;9.68;100.00;146189.19;5031502;28;20071;-54
2022/04/14 06:25:41;;;;;;;217.23;83.72;;;;;;;9.69;100.00;147596.97;5030286;28;20021;-53
2022/04/14 06:28:07;;;;;;;209.60;80.43;;;;;;;9.68;100.00;149353.38;5032198;28;20017;-54
2022/04/14 06:30:33;;;;;;;208.73;89.20;;;;;;;9.69;100.00;151115.47;5030148;28;20017;-53
2022/04/14 06:33:03;;;;;;;184.02;87.82;;;;;;;9.72;100.00;151827.00;5029941;28;20041;-54
2022/04/14 06:35:28;;;;;;;206.65;83.60;;;;;;;9.84;100.00;151855.81;5027270;28;20037;-54
2022/04/14 06:37:54;;;;;;;205.35;88.68;;;;;;;9.96;100.00;150476.03;5029061;28;20543;-54
2022/04/14 06:40:21;;;;;;;206.90;88.60;;;;;;;10.11;100.00;148400.72;5031228;28;20029;-54
2022/04/14 06:42:47;;;;;;;238.45;92.18;;;;;;;10.32;100.00;145986.72;5030110;28;20034;-54
2022/04/14 06:45:12;;;;;;;201.60;87.13;;;;;;;10.50;100.00;143563.03;5031506;28;20084;-54
2022/04/14 06:47:37;;;;;;;167.93;85.07;;;;;;;10.78;100.00;140462.63;5030456;28;20052;-54
2022/04/14 06:50:03;;;;;;;164.93;85.53;;;;;;;10.90;100.00;140136.31;5031214;28;20036;-54
2022/04/14 06:52:28;;;;;;;150.70;83.13;;;;;;;11.07;100.00;139823.59;5029424;28;20513;-54
2022/04/14 06:54:53;;;;;;;152.27;83.70;;;;;;;11.01;100.00;142977.03;5031024;28;20477;-54
2022/04/14 06:57:20;;;;;;;150.85;78.05;;;;;;;11.41;100.00;140251.50;5029783;28;20385;-54
2022/04/14 06:59:46;;;;;;;152.38;79.97;;;;;;;11.67;100.00;139251.53;5025038;28;20044;-53
2022/04/14 07:02:12;;;;;;;120.15;78.35;;;;;;;11.92;100.00;140364.44;5027166;28;20041;-53
2022/04/14 07:04:37;;;;;;;114.22;74.32;;;;;;;12.19;100.00;142892.56;5030548;28;20033;-54
2022/04/14 07:07:03;;;;;;;117.60;75.38;;;;;;;12.10;100.00;152050.41;5029208;28;20048;-53
2022/04/14 07:09:32;;;;;;;112.43;73.75;;;;;;;12.28;100.00;154217.19;5030782;28;20029;-54
2022/04/14 07:12:00;;;;;;;110.03;72.65;;;;;;;12.50;100.00;143670.03;5029206;28;20063;-53
2022/04/14 07:14:28;;;;;;;89.40;65.88;;;;;;;12.65;100.00;141939.44;5031806;28;20053;-53
2022/04/14 07:16:54;;;;;;;80.32;61.20;;;;;;;13.29;100.00;139258.91;5029335;28;20037;-53
2022/04/14 07:19:20;;;;;;;68.78;58.22;;;;;;;14.08;100.00;164247.56;5025311;28;20033;-53
2022/04/14 07:21:46;;;;;;;61.58;47.00;;;;;;;14.85;100.00;164449.25;5029279;28;20555;-54
2022/04/14 07:24:11;;;;;;;54.17;45.65;;;;;;;15.94;100.00;164733.56;5030949;28;20465;-54
2022/04/14 07:26:37;;;;;;;46.13;38.67;;;;;;;17.01;100.00;165015.38;5024645;28;20041;-53
2022/04/14 07:29:03;;;;;;;44.08;38.90;;;;;;;17.72;100.00;165202.38;5020173;28;20089;-53
2022/04/14 07:31:31;;;;;;;43.42;37.17;;;;;;;18.57;100.00;165423.41;5020314;28;20459;-52
2022/04/14 07:33:56;;;;;;;39.13;34.92;;;;;;;18.64;100.00;165443.78;5027177;28;20034;-53
2022/04/14 07:36:22;;;;;;;37.30;33.42;;;;;;;18.83;100.00;165492.56;5030120;28;20033;-54
2022/04/14 07:38:48;;;;;;;38.13;33.65;;;;;;;19.32;100.00;165621.50;5031080;28;20095;-54
2022/04/14 07:41:13;;;;;;;33.47;30.00;;;;;;;19.91;100.00;165776.22;5029870;28;20037;-54
2022/04/14 07:43:38;;;;;;;33.22;29.60;;;;;;;19.75;100.00;165735.47;5031240;28;20031;-54
2022/04/14 07:46:04;;;;;;;34.90;29.80;;;;;;;18.76;100.00;165474.97;5029560;28;20042;-54
2022/04/14 07:48:30;;;;;;;35.95;31.58;;;;;;;19.37;100.00;165633.72;5030987;28;20025;-54
2022/04/14 07:50:55;;;;;;;36.42;32.72;;;;;;;19.03;100.00;165545.53;5029993;28;20084;-54
2022/04/14 07:53:21;;;;;;;36.95;31.33;;;;;;;19.08;100.00;165557.75;5030931;28;20076;-54
2022/04/14 07:55:46;;;;;;;33.75;29.88;;;;;;;18.62;100.00;165436.94;5029935;28;20079;-54
2022/04/14 07:58:12;;;;;;;31.65;28.33;;;;;;;17.98;100.00;165270.22;5031363;28;20033;-54
2022/04/14 08:00:39;;;;;;;31.35;26.73;;;;;;;17.60;100.00;165169.84;5029780;28;20037;-54
2022/04/14 08:03:06;;;;;;;31.80;28.58;;;;;;;17.91;100.00;165251.16;5028205;28;20418;-54
2022/04/14 08:05:40;;;;;;;32.55;29.13;;;;;;;18.54;100.00;165416.63;5029178;28;20080;-54
2022/04/14 08:08:11;;;;;;;32.38;28.15;;;;;;;18.64;100.00;165443.78;5010113;28;20038;-54
2022/04/14 08:10:37;;;;;;;31.83;28.48;;;;;;;18.65;100.00;165446.44;5011754;28;20034;-55
2022/04/14 08:13:02;;;;;;;32.97;27.83;;;;;;;19.00;100.00;165538.75;5029022;28;20493;-55
2022/04/14 08:15:29;;;;;;;31.65;28.30;;;;;;;19.08;100.00;165559.09;5030182;28;20037;-55
2022/04/14 08:17:55;;;;;;;36.60;29.70;;;;;;;18.95;100.00;165525.16;5028446;28;20048;-55
2022/04/14 08:20:21;;;;;;;31.55;28.15;;;;;;;19.76;100.00;165736.84;5029712;28;20017;-54
2022/04/14 08:22:49;;;;;;;29.25;26.33;;;;;;;19.03;100.00;165546.88;5021254;28;20099;-54
2022/04/14 08:25:18;;;;;;;35.85;28.50;;;;;;;18.64;100.00;165443.78;5030653;28;20025;-55
2022/04/14 08:27:43;;;;;;;34.38;30.73;;;;;;;18.89;100.00;165508.84;5027929;28;20593;-54
2022/04/14 08:30:09;;;;;;;30.83;27.25;;;;;;;19.62;100.00;165701.53;5029367;28;20037;-53
2022/04/14 08:32:35;;;;;;;29.30;24.77;;;;;;;17.84;100.00;165232.16;5028308;28;20068;-54
2022/04/14 08:35:04;;;;;;;28.23;23.65;;;;;;;18.32;100.00;165359.69;5031006;28;20473;-54
2022/04/14 08:37:29;;;;;;;31.00;26.30;;;;;;;18.37;100.00;165373.22;5028715;28;20115;-54
2022/04/14 08:39:54;;;;;;;35.83;26.23;;;;;;;17.88;100.00;165243.03;5030064;28;20029;-55
2022/04/14 08:42:25;;;;;;;28.40;25.35;;;;;;;17.35;100.00;165104.78;5028670;28;20057;-54
2022/04/14 08:45:00;;;;;;;30.58;26.65;;;;;;;16.70;100.00;164934.03;5030086;28;20034;-54
2022/04/14 08:47:28;;;;;;;28.83;25.77;;;;;;;16.96;100.00;165001.78;5028348;28;20099;-55
2022/04/14 08:49:54;;;;;;;;;;;;;;;17.46;100.00;165131.91;5031207;28;20029;-55
2022/04/14 08:52:20;;;;;;;32.00;25.13;;;;;;;16.53;100.00;164887.94;5028386;28;19943;-54
2022/04/14 08:54:46;;;;;;;30.27;26.00;;;;;;;16.50;100.00;164882.53;5030999;28;20071;-55
2022/04/14 08:57:15;;;;;;;31.13;25.30;;;;;;;17.18;100.00;165058.69;5028359;28;20045;-55
2022/04/14 08:59:45;;;;;;;28.33;25.15;;;;;;;16.99;100.00;165009.94;5029896;28;20037;-54
2022/04/14 09:02:28;;;;;;;26.95;24.20;;;;;;;17.84;100.00;165232.16;5028390;28;20049;-56
2022/04/14 09:04:56;;;;;;;28.15;24.13;;;;;;;18.46;100.00;165394.94;5030027;28;20029;-54
2022/04/14 09:07:21;;;;;;;32.45;23.77;;;;;;;18.04;100.00;165285.09;5028202;28;20045;-54
2022/04/14 09:09:46;;;;;;;27.05;23.45;;;;;;;18.69;100.00;165457.31;5030512;28;20112;-55
2022/04/14 09:12:12;;;;;;;28.38;25.35;;;;;;;19.53;100.00;165677.13;5027524;28;20042;-55
2022/04/14 09:14:38;;;;;;;26.10;22.95;;;;;;;19.70;100.00;165720.53;5029499;28;20026;-55
2022/04/14 09:17:04;;;;;;;24.92;21.08;;;;;;;18.78;100.00;165479.03;5027867;28;20500;-55
2022/04/14 09:19:31;;;;;;;25.02;20.67;;;;;;;17.94;100.00;165259.31;5031545;28;20116;-55
2022/04/14 09:22:15;;;;;;;24.60;21.25;;;;;;;17.59;100.00;165168.47;5031346;28;20522;-55
2022/04/14 09:24:52;;;;;;;26.85;21.90;;;;;;;17.11;100.00;165042.44;5033830;28;20037;-55
2022/04/14 09:27:25;;;;;;;24.58;21.02;;;;;;;17.51;100.00;165145.44;5027601;28;20073;-55
2022/04/14 09:29:50;;;;;;;24.90;19.13;;;;;;;17.39;100.00;165115.59;5033884;28;20381;-55
2022/04/14 09:32:42;;;;;;;23.63;20.38;;;;;;;17.29;100.00;165088.53;5030487;28;20038;-55
2022/04/14 09:35:31;;;;;;;29.15;20.80;;;;;;;17.36;100.00;165106.13;5029160;28;20033;-55
2022/04/14 09:38:08;;;;;;;25.63;21.95;;;;;;;17.75;100.00;165210.53;5023336;28;20106;-55
2022/04/14 09:40:34;;;;;;;20.53;18.07;;;;;;;17.75;100.00;165209.16;5021513;28;20021;-55
2022/04/14 09:43:00;;;;;;;21.55;19.35;;;;;;;18.19;100.00;165324.44;5032278;28;20048;-55
2022/04/14 09:45:28;;;;;;;18.70;16.58;;;;;;;18.48;100.00;165400.38;5027665;28;20504;-55
2022/04/14 09:47:54;;;;;;;20.20;16.63;;;;;;;19.23;100.00;165598.44;5031145;28;20037;-55
2022/04/14 09:50:26;;;;;;;21.73;17.77;;;;;;;18.69;100.00;165457.31;5032659;28;20032;-55
2022/04/14 09:53:06;;;;;;;19.98;17.88;;;;;;;18.18;100.00;165321.72;5031268;28;20045;-55
2022/04/14 09:55:36;;;;;;;18.83;16.83;;;;;;;18.58;100.00;165427.47;5032803;28;20028;-55
2022/04/14 09:58:07;;;;;;;22.33;17.13;;;;;;;18.78;100.00;165479.03;5031852;28;20125;-55
2022/04/14 10:00:43;;;;;;;16.92;14.55;;;;;;;18.75;100.00;165470.88;5032944;28;20117;-55
2022/04/14 10:03:20;;;;;;;18.02;13.45;;;;;;;18.49;100.00;165403.09;5031837;28;20124;-55
2022/04/14 10:05:48;;;;;;;17.88;14.57;;;;;;;18.52;100.00;165412.59;5029219;28;20029;-54
2022/04/14 10:08:14;;;;;;;13.32;11.95;;;;;;;19.05;100.00;165549.59;5032487;28;20031;-55
2022/04/14 10:10:42;;;;;;;16.30;11.23;;;;;;;19.42;100.00;165647.25;5031906;28;20022;-55
2022/04/14 10:13:10;;;;;;;15.57;12.30;;;;;;;19.29;100.00;165614.72;5030444;28;20486;-55
2022/04/14 10:15:38;;;;;;;18.63;13.68;;;;;;;19.41;100.00;165644.53;5030539;28;20045;-55
2022/04/14 10:18:07;;;;;;;14.25;12.63;;;;;;;19.18;100.00;165584.84;5031520;28;20049;-55
2022/04/14 10:20:33;;;;;;;15.93;13.05;;;;;;;19.01;100.00;165541.47;5033014;28;20024;-55
2022/04/14 10:23:00;;;;;;;16.85;10.98;;;;;;;19.69;100.00;165717.84;5030769;28;20083;-55
2022/04/14 10:25:26;;;;;;;16.40;11.88;;;;;;;19.70;100.00;165720.53;5027156;28;20025;-55
2022/04/14 10:27:54;;;;;;;18.27;11.70;;;;;;;19.72;100.00;165725.97;5026637;28;20049;-59
2022/04/14 10:30:20;;;;;;;19.63;14.05;;;;;;;19.78;100.00;165742.25;5030422;28;20048;-55
2022/04/14 10:32:46;;;;;;;16.65;13.27;;;;;;;19.63;100.00;165704.25;5031014;28;20070;-55
2022/04/14 10:35:12;;;;;;;16.48;14.18;;;;;;;19.54;100.00;165678.47;5031529;28;20036;-55
2022/04/14 10:37:50;;;;;;;15.73;11.88;;;;;;;19.54;100.00;165678.47;5029729;28;20046;-55
2022/04/14 10:40:16;;;;;;;17.88;11.48;;;;;;;19.66;100.00;165712.41;5031586;28;20013;-55
2022/04/14 10:42:52;;;;;;;16.90;12.27;;;;;;;19.83;100.00;165755.84;5029404;28;20425;-55
2022/04/14 10:45:21;;;;;;;12.43;11.15;;;;;;;19.38;100.00;165636.44;5031046;28;20044;-55
2022/04/14 10:47:46;;;;;;;14.25;12.75;;;;;;;18.46;100.00;165394.94;5027491;28;20046;-55
2022/04/14 10:50:38;;;;;;;17.00;12.43;;;;;;;18.38;100.00;165375.94;5032526;28;20107;-55
2022/04/14 10:53:08;;;;;;;20.83;9.70;;;;;;;18.57;100.00;165424.78;5007550;28;20042;-55
2022/04/14 10:55:45;;;;;;;14.50;10.65;;;;;;;18.89;100.00;165508.84;5011918;28;20029;-55